Time;durP1;ratioP1;P1;durP2;ratioP2;P2;SDS_P1;SDS_P2;PMS_P1;PMS_P2;Temp;Humidity;BMP_temperature;BMP_pressure;BME280_temperature;BME280_humidity;BME280_pressure;Samples;Min_cycle;Max_cycle;Signal;HPM_P1;HPM_P2
2023/03/13 00:01:17;;;;;;;9.68;3.05;;;;;;;;;;5031051;28;20397;-60
2023/03/13 00:03:43;;;;;;;11.80;3.25;;;;;;;;;;5030821;28;20064;-59
2023/03/13 00:06:10;;;;;;;11.07;2.92;;;;;;;;;;5051632;28;20032;-59
2023/03/13 00:08:36;;;;;;;7.57;3.08;;;;;;;;;;5048371;28;20473;-61
2023/03/13 00:11:06;;;;;;;10.45;3.08;;;;;;;;;;5031278;28;20543;-59
2023/03/13 00:13:32;;;;;;;6.45;2.70;;;;;;;;;;5030049;28;20037;-60
2023/03/13 00:16:02;;;;;;;8.90;2.80;;;;;;;;;;5031211;28;20021;-60
2023/03/13 00:18:29;;;;;;;8.80;2.70;;;;;;;;;;5030465;28;20029;-60
2023/03/13 00:21:13;;;;;;;11.43;3.63;;;;;;;;;;5030781;28;20033;-59
2023/03/13 00:23:39;;;;;;;8.82;3.17;;;;;;;;;;5030991;28;20501;-60
2023/03/13 00:26:06;;;;;;;8.60;2.63;;;;;;;;;;5030880;28;20029;-58
2023/03/13 00:28:33;;;;;;;8.80;2.70;;;;;;;;;;5030431;28;20029;-60
2023/03/13 00:31:11;;;;;;;7.80;2.55;;;;;;;;;;5031096;28;20060;-58
2023/03/13 00:33:41;;;;;;;6.88;2.28;;;;;;;;;;5030709;28;20398;-59
2023/03/13 00:36:09;;;;;;;7.60;2.88;;;;;;;;;;5035380;28;20033;-59
2023/03/13 00:38:35;;;;;;;8.70;2.47;;;;;;;;;;5050783;28;20029;-57
2023/03/13 00:41:02;;;;;;;8.15;2.92;;;;;;;;;;5039253;28;20029;-58
2023/03/13 00:43:28;;;;;;;8.10;2.65;;;;;;;;;;5030750;28;20025;-60
2023/03/13 00:45:55;;;;;;;6.00;2.05;;;;;;;;;;5030972;28;20029;-57
2023/03/13 00:48:21;;;;;;;7.28;2.10;;;;;;;;;;5030608;28;20474;-57
2023/03/13 00:50:47;;;;;;;7.07;2.40;;;;;;;;;;5030859;28;20032;-60
2023/03/13 00:53:13;;;;;;;7.03;2.25;;;;;;;;;;5042087;28;20041;-57
2023/03/13 00:55:39;;;;;;;7.45;2.50;;;;;;;;;;5051056;28;20059;-59
2023/03/13 00:58:05;;;;;;;6.38;2.05;;;;;;;;;;5050607;28;20053;-60
2023/03/13 01:00:31;;;;;;;5.22;2.22;;;;;;;;;;5050280;28;20826;-58
2023/03/13 01:02:57;;;;;;;7.47;2.17;;;;;;;;;;5050470;28;20071;-58
2023/03/13 01:05:23;;;;;;;5.53;2.13;;;;;;;;;;5050393;28;20036;-57
2023/03/13 01:07:49;;;;;;;6.93;2.08;;;;;;;;;;5050625;28;20025;-59
2023/03/13 01:10:15;;;;;;;6.13;2.22;;;;;;;;;;5049955;28;20045;-61
2023/03/13 01:12:41;;;;;;;7.50;2.30;;;;;;;;;;5034815;28;20037;-59
2023/03/13 01:15:09;;;;;;;6.07;2.03;;;;;;;;;;5030349;28;20379;-59
2023/03/13 01:17:35;;;;;;;7.00;2.17;;;;;;;;;;5030133;28;20030;-58
2023/03/13 01:20:01;;;;;;;5.90;1.77;;;;;;;;;;5034469;28;20028;-59
2023/03/13 01:22:26;;;;;;;4.47;1.70;;;;;;;;;;5049358;28;20025;-58
2023/03/13 01:24:53;;;;;;;5.72;2.22;;;;;;;;;;5030242;28;20355;-59
2023/03/13 01:27:19;;;;;;;6.63;2.22;;;;;;;;;;5030233;28;20561;-59
2023/03/13 01:29:44;;;;;;;7.38;2.42;;;;;;;;;;5030046;28;20181;-59
2023/03/13 01:32:10;;;;;;;7.15;1.85;;;;;;;;;;5034158;28;20038;-58
2023/03/13 01:34:36;;;;;;;6.05;1.67;;;;;;;;;;5033616;28;20112;-59
2023/03/13 01:37:02;;;;;;;5.75;1.92;;;;;;;;;;5038262;28;20017;-58
2023/03/13 01:39:28;;;;;;;5.72;1.80;;;;;;;;;;5053825;28;20025;-58
2023/03/13 01:41:54;;;;;;;5.82;1.70;;;;;;;;;;5053964;28;20024;-59
2023/03/13 01:44:24;;;;;;;3.28;1.48;;;;;;;;;;5037604;28;20032;-60
2023/03/13 01:46:50;;;;;;;4.53;2.03;;;;;;;;;;5033937;28;20072;-59
2023/03/13 01:49:24;;;;;;;2.90;1.55;;;;;;;;;;5032911;28;20144;-59
2023/03/13 01:51:57;;;;;;;4.60;1.75;;;;;;;;;;5033563;28;20529;-59
2023/03/13 01:54:25;;;;;;;5.47;1.55;;;;;;;;;;5033031;28;20049;-60
2023/03/13 01:56:57;;;;;;;5.72;1.77;;;;;;;;;;5033512;28;20036;-59
2023/03/13 01:59:28;;;;;;;3.40;1.45;;;;;;;;;;5033154;28;20033;-58
2023/03/13 02:01:56;;;;;;;5.82;1.90;;;;;;;;;;5033092;28;20033;-59
2023/03/13 02:04:22;;;;;;;6.97;2.22;;;;;;;;;;5032577;28;20052;-59
2023/03/13 02:06:50;;;;;;;4.30;1.45;;;;;;;;;;5041960;28;20104;-61
2023/03/13 02:09:19;;;;;;;3.65;1.45;;;;;;;;;;5053105;28;20040;-58
2023/03/13 02:12:11;;;;;;;3.03;1.55;;;;;;;;;;5053350;28;20028;-59
2023/03/13 02:14:38;;;;;;;4.03;1.95;;;;;;;;;;5032155;28;20571;-59
2023/03/13 02:17:04;;;;;;;4.40;1.63;;;;;;;;;;5033187;28;20022;-59
2023/03/13 02:19:52;;;;;;;3.55;1.52;;;;;;;;;;5032850;28;20456;-59
2023/03/13 02:22:23;;;;;;;4.40;1.58;;;;;;;;;;5032996;28;20021;-58
2023/03/13 02:25:11;;;;;;;4.15;1.40;;;;;;;;;;5032806;28;20033;-57
2023/03/13 02:27:37;;;;;;;3.35;1.35;;;;;;;;;;5033249;28;20036;-60
2023/03/13 02:30:03;;;;;;;4.40;1.95;;;;;;;;;;5032909;28;20026;-61
2023/03/13 02:32:30;;;;;;;3.53;1.45;;;;;;;;;;5032637;28;20025;-60
2023/03/13 02:34:57;;;;;;;3.42;1.50;;;;;;;;;;5032483;28;20053;-60
2023/03/13 02:37:25;;;;;;;3.75;1.27;;;;;;;;;;5031828;28;20122;-59
2023/03/13 02:39:51;;;;;;;4.47;1.83;;;;;;;;;;5043207;28;20029;-57
2023/03/13 02:42:18;;;;;;;6.78;1.70;;;;;;;;;;5051766;28;20034;-59
2023/03/13 02:44:45;;;;;;;3.50;1.40;;;;;;;;;;5035166;28;20029;-58
2023/03/13 02:47:12;;;;;;;3.17;1.30;;;;;;;;;;5032391;28;20036;-59
2023/03/13 02:49:38;;;;;;;3.05;1.50;;;;;;;;;;5032752;28;20029;-60
2023/03/13 02:52:08;;;;;;;3.53;1.60;;;;;;;;;;5032722;28;20084;-59
2023/03/13 02:54:35;;;;;;;2.65;1.45;;;;;;;;;;5032534;28;20473;-59
2023/03/13 02:57:03;;;;;;;3.95;1.23;;;;;;;;;;5050477;28;20100;-57
2023/03/13 02:59:29;;;;;;;3.20;1.35;;;;;;;;;;5052352;28;20439;-56
2023/03/13 03:01:55;;;;;;;3.72;1.45;;;;;;;;;;5052457;28;20052;-59
2023/03/13 03:04:22;;;;;;;4.20;1.38;;;;;;;;;;5052084;28;20021;-59
2023/03/13 03:06:48;;;;;;;3.58;1.20;;;;;;;;;;5052293;28;20525;-60
2023/03/13 03:09:14;;;;;;;3.13;1.30;;;;;;;;;;5052031;28;20039;-60
2023/03/13 03:11:40;;;;;;;4.25;1.52;;;;;;;;;;5052525;28;20500;-59
2023/03/13 03:14:07;;;;;;;1.55;0.95;;;;;;;;;;5038160;28;20034;-58
2023/03/13 03:16:33;;;;;;;2.15;1.20;;;;;;;;;;5032062;28;20026;-60
2023/03/13 03:18:59;;;;;;;2.58;1.40;;;;;;;;;;5031736;28;20036;-58
2023/03/13 03:21:25;;;;;;;4.00;1.60;;;;;;;;;;5031220;28;20029;-61
2023/03/13 03:23:51;;;;;;;3.25;1.60;;;;;;;;;;5051489;28;20021;-59
2023/03/13 03:26:17;;;;;;;3.72;1.77;;;;;;;;;;5050456;28;20047;-61
2023/03/13 03:28:43;;;;;;;2.50;1.45;;;;;;;;;;5041057;28;20033;-56
2023/03/13 03:31:11;;;;;;;2.95;1.20;;;;;;;;;;5031992;28;20028;-60
2023/03/13 03:33:37;;;;;;;3.75;1.52;;;;;;;;;;5031805;28;20037;-58
2023/03/13 03:36:05;;;;;;;2.20;1.02;;;;;;;;;;5031522;28;20104;-59
2023/03/13 03:38:31;;;;;;;3.97;1.67;;;;;;;;;;5031223;28;20048;-59
2023/03/13 03:40:57;;;;;;;3.13;1.60;;;;;;;;;;5031131;28;20029;-59
2023/03/13 03:43:24;;;;;;;3.00;1.20;;;;;;;;;;5031161;28;20083;-62
2023/03/13 03:45:50;;;;;;;2.58;1.05;;;;;;;;;;5031695;28;20025;-59
2023/03/13 03:48:16;;;;;;;2.50;1.33;;;;;;;;;;5030552;28;20096;-59
2023/03/13 03:50:42;;;;;;;2.45;1.20;;;;;;;;;;5030981;28;20025;-60
2023/03/13 03:53:08;;;;;;;2.47;1.30;;;;;;;;;;5044911;28;20041;-58
2023/03/13 03:55:34;;;;;;;3.65;1.40;;;;;;;;;;5050288;28;20028;-57
2023/03/13 03:58:00;;;;;;;4.00;1.67;;;;;;;;;;5045827;28;20063;-60
2023/03/13 04:00:26;;;;;;;2.47;1.00;;;;;;;;;;5031013;28;20053;-62
2023/03/13 04:02:52;;;;;;;2.53;1.23;;;;;;;;;;5030521;28;20041;-60
2023/03/13 04:05:18;;;;;;;3.80;1.17;;;;;;;;;;5031012;28;20104;-59
2023/03/13 04:07:44;;;;;;;3.40;1.10;;;;;;;;;;5031075;28;20094;-59
2023/03/13 04:10:10;;;;;;;2.10;1.17;;;;;;;;;;5031305;28;20559;-59
2023/03/13 04:12:37;;;;;;;3.45;1.55;;;;;;;;;;5031166;28;20382;-61
2023/03/13 04:15:03;;;;;;;4.25;1.40;;;;;;;;;;5030659;28;20075;-58
2023/03/13 04:17:30;;;;;;;3.70;1.38;;;;;;;;;;5030698;28;20033;-60
2023/03/13 04:19:56;;;;;;;2.55;1.20;;;;;;;;;;5030345;28;20398;-59
2023/03/13 04:22:22;;;;;;;3.53;1.48;;;;;;;;;;5037533;28;20032;-61
2023/03/13 04:24:48;;;;;;;2.55;1.23;;;;;;;;;;5050849;28;20029;-59
2023/03/13 04:27:14;;;;;;;3.42;1.50;;;;;;;;;;5035571;28;20556;-58
2023/03/13 04:29:40;;;;;;;3.78;1.42;;;;;;;;;;5030801;28;20100;-60
2023/03/13 04:32:06;;;;;;;2.85;1.23;;;;;;;;;;5031004;28;20034;-61
2023/03/13 04:34:32;;;;;;;4.22;1.83;;;;;;;;;;5030139;28;20071;-60
2023/03/13 04:36:58;;;;;;;3.05;1.40;;;;;;;;;;5031116;28;20029;-59
2023/03/13 04:39:24;;;;;;;2.83;1.38;;;;;;;;;;5030110;28;20551;-61
2023/03/13 04:41:51;;;;;;;5.50;1.92;;;;;;;;;;5050788;28;20045;-60
2023/03/13 04:44:17;;;;;;;4.07;1.38;;;;;;;;;;5043292;28;20033;-59
2023/03/13 04:46:43;;;;;;;3.03;1.55;;;;;;;;;;5030963;28;20359;-60
2023/03/13 04:49:09;;;;;;;3.33;1.40;;;;;;;;;;5031094;28;20072;-61
2023/03/13 04:51:35;;;;;;;4.50;1.63;;;;;;;;;;5030591;28;20470;-60
2023/03/13 04:54:01;;;;;;;2.95;1.08;;;;;;;;;;5030882;28;20083;-61
2023/03/13 04:56:27;;;;;;;4.20;1.63;;;;;;;;;;5037248;28;20116;-60
2023/03/13 04:58:53;;;;;;;4.25;1.70;;;;;;;;;;5050630;28;20550;-60
2023/03/13 05:01:20;;;;;;;4.50;1.63;;;;;;;;;;5050415;28;20029;-59
2023/03/13 05:03:46;;;;;;;3.35;1.52;;;;;;;;;;5050713;28;20113;-60
2023/03/13 05:06:12;;;;;;;3.08;1.50;;;;;;;;;;5052511;28;20114;-60
2023/03/13 05:08:38;;;;;;;2.83;1.42;;;;;;;;;;5054653;28;20416;-60
2023/03/13 05:11:04;;;;;;;4.68;1.60;;;;;;;;;;5054201;28;20478;-60
2023/03/13 05:13:30;;;;;;;2.95;1.55;;;;;;;;;;5044095;28;20379;-60
2023/03/13 05:15:57;;;;;;;3.15;1.25;;;;;;;;;;5034219;28;20083;-60
2023/03/13 05:18:23;;;;;;;3.72;1.30;;;;;;;;;;5034004;28;20559;-59
2023/03/13 05:20:49;;;;;;;4.05;1.70;;;;;;;;;;5033806;28;20025;-61
2023/03/13 05:23:15;;;;;;;3.10;1.55;;;;;;;;;;5046839;28;20075;-58
2023/03/13 05:25:41;;;;;;;3.63;1.90;;;;;;;;;;5054264;28;20052;-62
2023/03/13 05:28:06;;;;;;;3.17;1.50;;;;;;;;;;5048086;28;20044;-60
2023/03/13 05:30:33;;;;;;;3.75;1.40;;;;;;;;;;5034079;28;20025;-60
2023/03/13 05:32:58;;;;;;;5.25;2.00;;;;;;;;;;5033569;28;20124;-58
2023/03/13 05:35:24;;;;;;;4.20;1.48;;;;;;;;;;5033594;28;20041;-59
2023/03/13 05:37:50;;;;;;;3.33;1.75;;;;;;;;;;5033900;28;20112;-59
2023/03/13 05:40:17;;;;;;;3.60;1.83;;;;;;;;;;5033300;28;20029;-58
2023/03/13 05:42:44;;;;;;;3.20;1.55;;;;;;;;;;5033696;28;20037;-58
2023/03/13 05:45:10;;;;;;;4.47;1.50;;;;;;;;;;5034133;28;20017;-56
2023/03/13 05:47:37;;;;;;;3.83;1.55;;;;;;;;;;5032927;28;20037;-59
2023/03/13 05:50:03;;;;;;;5.07;2.50;;;;;;;;;;5033611;28;20041;-61
2023/03/13 05:52:29;;;;;;;4.07;1.63;;;;;;;;;;5032877;28;20040;-59
2023/03/13 05:54:55;;;;;;;4.68;2.38;;;;;;;;;;5053242;28;20021;-61
2023/03/13 05:57:21;;;;;;;5.50;2.08;;;;;;;;;;5052640;28;20060;-58
2023/03/13 05:59:48;;;;;;;4.55;2.00;;;;;;;;;;5033819;28;20032;-59
2023/03/13 06:02:14;;;;;;;3.10;1.80;;;;;;;;;;5032643;28;20037;-59
2023/03/13 06:04:40;;;;;;;4.70;1.80;;;;;;;;;;5033535;28;20025;-58
2023/03/13 06:07:06;;;;;;;5.63;1.73;;;;;;;;;;5033673;28;20079;-59
2023/03/13 06:09:32;;;;;;;3.63;1.70;;;;;;;;;;5032725;28;20037;-59
2023/03/13 06:11:58;;;;;;;5.00;1.85;;;;;;;;;;5032647;28;20033;-57
2023/03/13 06:14:24;;;;;;;5.93;2.05;;;;;;;;;;5032722;28;20056;-59
2023/03/13 06:16:50;;;;;;;5.53;2.00;;;;;;;;;;5031865;28;20022;-57
2023/03/13 06:19:16;;;;;;;3.78;1.75;;;;;;;;;;5037737;28;20034;-59
2023/03/13 06:21:43;;;;;;;4.80;2.03;;;;;;;;;;5032737;28;20041;-58
2023/03/13 06:24:09;;;;;;;5.78;1.55;;;;;;;;;;5033562;28;20030;-59
2023/03/13 06:26:35;;;;;;;6.22;1.92;;;;;;;;;;5032401;28;20029;-60
2023/03/13 06:29:00;;;;;;;4.43;1.90;;;;;;;;;;5033406;28;20129;-60
2023/03/13 06:31:26;;;;;;;4.35;2.08;;;;;;;;;;5031809;28;20474;-58
2023/03/13 06:33:53;;;;;;;4.68;2.20;;;;;;;;;;5032699;28;20038;-59
2023/03/13 06:36:19;;;;;;;6.18;2.20;;;;;;;;;;5037117;28;20026;-59
2023/03/13 06:38:45;;;;;;;3.75;1.60;;;;;;;;;;5032411;28;20040;-60
2023/03/13 06:41:11;;;;;;;3.35;1.67;;;;;;;;;;5032652;28;20139;-59
2023/03/13 06:43:39;;;;;;;6.00;2.25;;;;;;;;;;5033161;28;20110;-59
2023/03/13 06:46:06;;;;;;;3.78;1.48;;;;;;;;;;5031964;28;20396;-59
2023/03/13 06:48:32;;;;;;;6.47;2.58;;;;;;;;;;5031032;28;20490;-59
2023/03/13 06:50:58;;;;;;;2.78;1.58;;;;;;;;;;5032474;28;20029;-59
2023/03/13 06:53:24;;;;;;;5.10;1.90;;;;;;;;;;5031929;28;20484;-59
2023/03/13 06:55:50;;;;;;;7.72;2.40;;;;;;;;;;5031846;28;20021;-59
2023/03/13 06:58:17;;;;;;;5.35;2.28;;;;;;;;;;5032397;28;20029;-59
2023/03/13 07:00:43;;;;;;;4.43;1.88;;;;;;;;;;5032056;28;20060;-60
2023/03/13 07:03:10;;;;;;;4.85;1.55;;;;;;;;;;5032262;28;20048;-61
2023/03/13 07:05:36;;;;;;;6.32;1.95;;;;;;;;;;5031281;28;20037;-60
2023/03/13 07:08:02;;;;;;;4.57;1.90;;;;;;;;;;5049460;28;20021;-59
2023/03/13 07:10:29;;;;;;;5.78;1.95;;;;;;;;;;5052052;28;20040;-59
2023/03/13 07:12:55;;;;;;;5.18;2.00;;;;;;;;;;5052267;28;20379;-60
2023/03/13 07:15:21;;;;;;;4.55;1.65;;;;;;;;;;5052084;28;20087;-59
2023/03/13 07:17:47;;;;;;;5.53;2.17;;;;;;;;;;5052271;28;20076;-58
2023/03/13 07:20:13;;;;;;;5.88;2.20;;;;;;;;;;5052096;28;20021;-52
2023/03/13 07:22:39;;;;;;;9.65;2.20;;;;;;;;;;5039403;28;20037;-54
2023/03/13 07:25:06;;;;;;;4.53;1.95;;;;;;;;;;5031891;28;20501;-56
2023/03/13 07:27:32;;;;;;;5.57;1.60;;;;;;;;;;5031731;28;20039;-59
2023/03/13 07:29:58;;;;;;;11.38;2.20;;;;;;;;;;5032035;28;20097;-58
2023/03/13 07:32:24;;;;;;;7.47;2.35;;;;;;;;;;5031783;28;20518;-58
2023/03/13 07:34:50;;;;;;;8.18;2.35;;;;;;;;;;5031860;28;20025;-55
2023/03/13 07:37:16;;;;;;;6.72;1.95;;;;;;;;;;5031147;28;20402;-58
2023/03/13 07:39:43;;;;;;;9.70;2.20;;;;;;;;;;5031984;28;20036;-58
2023/03/13 07:42:10;;;;;;;9.77;2.40;;;;;;;;;;5032275;28;20108;-58
2023/03/13 07:44:37;;;;;;;9.75;2.30;;;;;;;;;;5032215;28;20037;-54
2023/03/13 07:47:03;;;;;;;5.45;1.98;;;;;;;;;;5031743;28;20499;-55
2023/03/13 07:49:29;;;;;;;5.80;2.22;;;;;;;;;;5031418;28;20056;-56
2023/03/13 07:51:55;;;;;;;9.15;2.40;;;;;;;;;;5030913;28;20033;-55
2023/03/13 07:54:21;;;;;;;7.32;2.78;;;;;;;;;;5030349;28;20389;-59
2023/03/13 07:56:47;;;;;;;9.88;2.50;;;;;;;;;;5031662;28;20025;-57
2023/03/13 07:59:13;;;;;;;8.30;2.80;;;;;;;;;;5030780;28;20057;-60
2023/03/13 08:01:39;;;;;;;7.45;2.80;;;;;;;;;;5030663;28;20056;-58
2023/03/13 08:04:05;;;;;;;7.15;2.05;;;;;;;;;;5029528;28;20108;-60
2023/03/13 08:06:34;;;;;;;5.93;1.65;;;;;;;;;;5029295;28;20422;-56
2023/03/13 08:09:00;;;;;;;4.90;1.73;;;;;;;;;;5029573;28;20060;-58
2023/03/13 08:11:27;;;;;;;7.10;2.42;;;;;;;;;;5029141;28;20533;-56
2023/03/13 08:13:53;;;;;;;6.70;2.33;;;;;;;;;;5030513;28;20410;-57
2023/03/13 08:16:20;;;;;;;7.00;1.95;;;;;;;;;;5029245;28;20358;-57
2023/03/13 08:18:47;;;;;;;9.55;3.03;;;;;;;;;;5029287;28;20025;-58
2023/03/13 08:21:17;;;;;;;8.23;2.75;;;;;;;;;;5029070;28;20033;-57
2023/03/13 08:23:43;;;;;;;10.40;2.90;;;;;;;;;;5029493;28;20037;-58
2023/03/13 08:26:13;;;;;;;5.38;2.33;;;;;;;;;;5030110;28;20028;-58
2023/03/13 08:28:40;;;;;;;6.53;2.22;;;;;;;;;;5030244;28;20040;-60
2023/03/13 08:31:19;;;;;;;7.50;2.40;;;;;;;;;;5030991;28;20021;-60
2023/03/13 08:33:46;;;;;;;6.57;2.20;;;;;;;;;;5031157;28;20040;-60
2023/03/13 08:36:16;;;;;;;5.60;2.10;;;;;;;;;;5030968;28;20044;-58
2023/03/13 08:38:43;;;;;;;6.65;2.30;;;;;;;;;;5031207;28;20033;-55
2023/03/13 08:41:09;;;;;;;6.10;2.50;;;;;;;;;;5035830;28;20088;-58
2023/03/13 08:43:35;;;;;;;5.93;2.13;;;;;;;;;;5037458;28;20440;-60
2023/03/13 08:46:01;;;;;;;8.82;2.67;;;;;;;;;;5037724;28;20428;-53
2023/03/13 08:48:27;;;;;;;6.20;2.22;;;;;;;;;;5037392;28;20434;-57
2023/03/13 08:51:00;;;;;;;6.72;2.42;;;;;;;;;;5036465;28;20108;-56
2023/03/13 08:53:26;;;;;;;4.53;1.85;;;;;;;;;;5037355;28;20389;-56
2023/03/13 08:55:55;;;;;;;5.82;2.08;;;;;;;;;;5037690;28;20030;-57
2023/03/13 08:58:21;;;;;;;8.13;2.28;;;;;;;;;;5037330;28;20378;-60
2023/03/13 09:00:47;;;;;;;3.83;2.13;;;;;;;;;;5037624;28;20033;-59
2023/03/13 09:03:13;;;;;;;3.92;1.70;;;;;;;;;;5037350;28;20032;-60
2023/03/13 09:05:39;;;;;;;5.35;2.25;;;;;;;;;;5037701;28;20059;-60
2023/03/13 09:08:05;;;;;;;11.98;2.75;;;;;;;;;;5037485;28;20021;-58
2023/03/13 09:10:34;;;;;;;6.15;2.50;;;;;;;;;;5037119;28;20091;-57
2023/03/13 09:13:00;;;;;;;3.40;2.30;;;;;;;;;;5037200;28;20040;-54
2023/03/13 09:15:26;;;;;;;3.83;2.10;;;;;;;;;;5037249;28;20022;-60
2023/03/13 09:17:52;;;;;;;5.57;1.80;;;;;;;;;;5037396;28;20029;-60
2023/03/13 09:20:18;;;;;;;5.10;1.88;;;;;;;;;;5037118;28;20116;-60
2023/03/13 09:22:44;;;;;;;4.53;2.30;;;;;;;;;;5037331;28;20397;-58
2023/03/13 09:25:11;;;;;;;5.13;1.90;;;;;;;;;;5037739;28;20022;-57
2023/03/13 09:27:37;;;;;;;3.85;1.92;;;;;;;;;;5037863;28;20386;-58
2023/03/13 09:30:03;;;;;;;5.70;2.20;;;;;;;;;;5037298;28;20021;-57
2023/03/13 09:32:29;;;;;;;4.32;1.95;;;;;;;;;;5036974;28;20037;-60
2023/03/13 09:34:55;;;;;;;4.25;2.08;;;;;;;;;;5037340;28;20056;-55
2023/03/13 09:37:21;;;;;;;3.22;1.67;;;;;;;;;;5037069;28;20061;-58
2023/03/13 09:39:48;;;;;;;3.08;1.63;;;;;;;;;;5036068;28;20025;-57
2023/03/13 09:42:20;;;;;;;3.88;2.15;;;;;;;;;;5035576;28;20032;-57
2023/03/13 09:44:49;;;;;;;4.40;1.88;;;;;;;;;;5037309;28;20026;-60
2023/03/13 09:47:34;;;;;;;5.25;1.67;;;;;;;;;;5036889;28;20021;-58
2023/03/13 09:50:09;;;;;;;3.45;1.92;;;;;;;;;;5037188;28;20105;-59
2023/03/13 09:52:39;;;;;;;3.45;1.58;;;;;;;;;;5034672;28;20033;-59
2023/03/13 09:55:20;;;;;;;2.55;1.33;;;;;;;;;;5033920;28;20037;-59
2023/03/13 09:57:49;;;;;;;4.43;1.98;;;;;;;;;;5033934;28;20037;-59
2023/03/13 10:00:26;;;;;;;3.40;1.48;;;;;;;;;;5033584;28;20017;-59
2023/03/13 10:03:13;;;;;;;3.40;1.40;;;;;;;;;;5033785;28;20033;-58
2023/03/13 10:05:42;;;;;;;3.92;1.30;;;;;;;;;;5033420;28;20041;-57
2023/03/13 10:08:30;;;;;;;3.40;1.83;;;;;;;;;;5034004;28;20029;-58
2023/03/13 10:10:56;;;;;;;4.43;1.65;;;;;;;;;;5033666;28;20461;-60
2023/03/13 10:13:25;;;;;;;2.63;1.67;;;;;;;;;;5033176;28;20065;-61
2023/03/13 10:15:51;;;;;;;2.50;1.50;;;;;;;;;;5033689;28;20079;-56
2023/03/13 10:18:20;;;;;;;4.88;2.10;;;;;;;;;;5033359;28;20030;-61
2023/03/13 10:20:47;;;;;;;2.75;1.50;;;;;;;;;;5033539;28;20100;-59
2023/03/13 10:23:18;;;;;;;3.80;1.85;;;;;;;;;;5033223;28;20024;-60
2023/03/13 10:25:44;;;;;;;4.97;1.80;;;;;;;;;;5033318;28;20359;-58
2023/03/13 10:28:15;;;;;;;4.93;1.58;;;;;;;;;;5033504;28;20505;-58
2023/03/13 10:30:50;;;;;;;3.45;1.80;;;;;;;;;;5033579;28;20034;-55
2023/03/13 10:33:16;;;;;;;;;;;;;;;;;;5033244;28;20037;-61
2023/03/13 10:35:43;;;;;;;5.68;1.52;;;;;;;;;;5033387;28;19905;-61
2023/03/13 10:38:12;;;;;;;3.15;1.58;;;;;;;;;;5033347;28;20076;-58
2023/03/13 10:40:38;;;;;;;3.15;1.60;;;;;;;;;;5033505;28;20587;-59
2023/03/13 10:43:06;;;;;;;5.03;1.70;;;;;;;;;;5033123;28;20025;-57
2023/03/13 10:45:34;;;;;;;3.38;1.65;;;;;;;;;;5032794;28;20378;-55
2023/03/13 10:48:01;;;;;;;4.60;1.90;;;;;;;;;;5033050;28;20030;-56
2023/03/13 10:50:31;;;;;;;2.28;1.38;;;;;;;;;;5032595;28;20552;-57
2023/03/13 10:52:57;;;;;;;2.90;1.65;;;;;;;;;;5032873;28;20029;-56
2023/03/13 10:55:25;;;;;;;2.38;1.17;;;;;;;;;;5032705;28;20031;-58
2023/03/13 10:57:59;;;;;;;3.78;1.40;;;;;;;;;;5032885;28;20105;-56
2023/03/13 11:00:26;;;;;;;4.07;1.60;;;;;;;;;;5032575;28;20064;-58
2023/03/13 11:02:53;;;;;;;4.25;1.70;;;;;;;;;;5032239;28;20025;-56
2023/03/13 11:05:25;;;;;;;4.32;1.83;;;;;;;;;;5032349;28;20052;-57
2023/03/13 11:07:52;;;;;;;5.43;1.52;;;;;;;;;;5032780;28;20386;-57
2023/03/13 11:10:22;;;;;;;2.85;1.58;;;;;;;;;;5032089;28;20042;-56
2023/03/13 11:12:50;;;;;;;2.88;1.35;;;;;;;;;;5032492;28;20041;-55
2023/03/13 11:15:18;;;;;;;4.03;1.25;;;;;;;;;;5032144;28;20440;-56
2023/03/13 11:17:46;;;;;;;2.42;1.00;;;;;;;;;;5032362;28;20113;-58
2023/03/13 11:20:24;;;;;;;2.47;1.20;;;;;;;;;;5032043;28;20029;-58
2023/03/13 11:22:55;;;;;;;5.57;2.00;;;;;;;;;;5032425;28;20117;-58
2023/03/13 11:25:34;;;;;;;3.53;1.50;;;;;;;;;;5031912;28;20033;-56
2023/03/13 11:28:03;;;;;;;3.65;1.58;;;;;;;;;;5032264;28;20026;-56
2023/03/13 11:30:41;;;;;;;4.25;1.70;;;;;;;;;;5031887;28;20029;-58
2023/03/13 11:33:16;;;;;;;2.72;1.73;;;;;;;;;;5032475;28;20057;-58
2023/03/13 11:35:42;;;;;;;3.90;1.48;;;;;;;;;;5032166;28;20039;-57
2023/03/13 11:38:16;;;;;;;3.75;1.45;;;;;;;;;;5032694;28;20022;-59
2023/03/13 11:41:01;;;;;;;4.18;1.63;;;;;;;;;;5031974;28;20406;-56
2023/03/13 11:43:27;;;;;;;4.30;1.48;;;;;;;;;;5031823;28;20086;-57
2023/03/13 11:46:03;;;;;;;2.38;1.10;;;;;;;;;;5032025;28;20021;-57
2023/03/13 11:48:35;;;;;;;2.90;1.20;;;;;;;;;;5031672;28;20025;-57
2023/03/13 11:51:20;;;;;;;4.60;1.10;;;;;;;;;;5031832;28;20068;-56
2023/03/13 11:53:48;;;;;;;3.38;1.42;;;;;;;;;;5031743;28;20060;-53
2023/03/13 11:56:20;;;;;;;4.00;1.05;;;;;;;;;;5031554;28;20121;-56
2023/03/13 11:59:09;;;;;;;3.03;1.20;;;;;;;;;;5031534;28;20041;-54
2023/03/13 12:01:39;;;;;;;4.95;1.38;;;;;;;;;;5030481;28;20116;-56
2023/03/13 12:04:11;;;;;;;3.63;1.15;;;;;;;;;;5031865;28;20026;-56
2023/03/13 12:06:40;;;;;;;3.92;1.23;;;;;;;;;;5030521;28;20427;-54
2023/03/13 12:09:11;;;;;;;4.18;1.38;;;;;;;;;;5031749;28;20037;-54
2023/03/13 12:12:02;;;;;;;2.53;1.08;;;;;;;;;;5031623;28;20029;-56
2023/03/13 12:14:33;;;;;;;4.95;1.20;;;;;;;;;;5031102;28;20048;-55
2023/03/13 12:17:02;;;;;;;5.22;1.35;;;;;;;;;;5031141;28;20539;-56
2023/03/13 12:19:49;;;;;;;3.85;1.20;;;;;;;;;;5031098;28;20567;-60
2023/03/13 12:22:14;;;;;;;;;;;;;;;;;;5031675;28;20029;-55
2023/03/13 12:24:40;;;;;;;;;;;;;;;;;;5031948;28;19912;-57
2023/03/13 12:27:09;;;;;;;4.55;1.50;;;;;;;;;;5031618;28;20019;-60
2023/03/13 12:29:35;;;;;;;2.67;0.93;;;;;;;;;;5031086;28;20022;-60
2023/03/13 12:32:12;;;;;;;4.40;1.40;;;;;;;;;;5031171;28;20078;-58
2023/03/13 12:34:57;;;;;;;5.78;1.48;;;;;;;;;;5031349;28;20041;-60
2023/03/13 12:37:38;;;;;;;2.33;1.15;;;;;;;;;;5030832;28;20021;-61
2023/03/13 12:40:16;;;;;;;3.30;0.90;;;;;;;;;;5031163;28;20083;-59
2023/03/13 12:42:46;;;;;;;4.53;1.45;;;;;;;;;;5031070;28;20116;-58
2023/03/13 12:45:17;;;;;;;4.80;1.38;;;;;;;;;;5030978;28;20032;-56
2023/03/13 12:48:02;;;;;;;4.53;1.33;;;;;;;;;;5031041;28;20036;-59
2023/03/13 12:50:43;;;;;;;3.92;1.33;;;;;;;;;;5030832;28;20029;-60
2023/03/13 12:53:09;;;;;;;4.00;1.33;;;;;;;;;;5029852;28;20083;-60
2023/03/13 12:55:40;;;;;;;5.00;1.60;;;;;;;;;;5030589;28;20401;-60
2023/03/13 12:58:21;;;;;;;3.55;1.42;;;;;;;;;;5031022;28;20064;-59
2023/03/13 13:00:48;;;;;;;3.63;1.10;;;;;;;;;;5031066;28;20033;-58
2023/03/13 13:03:29;;;;;;;4.82;1.55;;;;;;;;;;5030713;28;20052;-59
2023/03/13 13:06:01;;;;;;;6.75;1.38;;;;;;;;;;5030872;28;20026;-60
2023/03/13 13:08:30;;;;;;;5.60;1.40;;;;;;;;;;5030384;28;20033;-58
2023/03/13 13:11:16;;;;;;;4.78;1.63;;;;;;;;;;5030885;28;20036;-59
2023/03/13 13:13:42;;;;;;;4.18;1.48;;;;;;;;;;5030851;28;20040;-56
2023/03/13 13:16:12;;;;;;;3.95;1.33;;;;;;;;;;5031166;28;20105;-58
2023/03/13 13:18:38;;;;;;;3.88;1.17;;;;;;;;;;5031128;28;20033;-58
2023/03/13 13:21:04;;;;;;;3.45;1.50;;;;;;;;;;5031156;28;20030;-58
2023/03/13 13:23:33;;;;;;;5.53;1.48;;;;;;;;;;5030517;28;20053;-58
2023/03/13 13:26:22;;;;;;;4.60;1.55;;;;;;;;;;5030806;28;20029;-57
2023/03/13 13:28:48;;;;;;;3.22;1.20;;;;;;;;;;5034051;28;20049;-58
2023/03/13 13:31:33;;;;;;;5.22;1.60;;;;;;;;;;5034194;28;20026;-59
2023/03/13 13:33:59;;;;;;;4.10;1.20;;;;;;;;;;5034325;28;20034;-57
2023/03/13 13:36:29;;;;;;;2.78;1.35;;;;;;;;;;5034175;28;20539;-57
2023/03/13 13:38:56;;;;;;;4.45;1.33;;;;;;;;;;5034368;28;20615;-57
2023/03/13 13:41:24;;;;;;;5.18;2.05;;;;;;;;;;5034101;28;20037;-57
2023/03/13 13:44:10;;;;;;;4.28;1.70;;;;;;;;;;5033238;28;20493;-58
2023/03/13 13:46:44;;;;;;;5.60;1.58;;;;;;;;;;5033544;28;20303;-57
2023/03/13 13:49:17;;;;;;;4.93;1.40;;;;;;;;;;5034090;28;20033;-58
2023/03/13 13:51:58;;;;;;;5.15;1.38;;;;;;;;;;5033320;28;20026;-58
2023/03/13 13:54:47;;;;;;;4.43;1.30;;;;;;;;;;5033146;28;20076;-59
2023/03/13 13:57:21;;;;;;;3.90;1.23;;;;;;;;;;5032159;28;20033;-58
2023/03/13 13:59:50;;;;;;;3.88;1.48;;;;;;;;;;5033185;28;20038;-61
2023/03/13 14:02:30;;;;;;;3.92;1.10;;;;;;;;;;5032800;28;20612;-57
2023/03/13 14:05:03;;;;;;;4.35;1.42;;;;;;;;;;5033664;28;20025;-58
2023/03/13 14:07:31;;;;;;;5.32;2.03;;;;;;;;;;5033590;28;20021;-59
2023/03/13 14:09:59;;;;;;;3.78;1.40;;;;;;;;;;5033618;28;20040;-59
2023/03/13 14:12:31;;;;;;;5.57;1.33;;;;;;;;;;5033460;28;20051;-57
2023/03/13 14:15:16;;;;;;;8.27;1.55;;;;;;;;;;5033528;28;20033;-61
2023/03/13 14:17:44;;;;;;;5.20;1.67;;;;;;;;;;5033539;28;20470;-57
2023/03/13 14:20:36;;;;;;;4.22;1.40;;;;;;;;;;5033746;28;20025;-61
2023/03/13 14:23:04;;;;;;;3.17;1.40;;;;;;;;;;5032791;28;20520;-60
2023/03/13 14:25:49;;;;;;;4.95;1.35;;;;;;;;;;5032995;28;20449;-61
2023/03/13 14:28:20;;;;;;;5.38;1.55;;;;;;;;;;5033321;28;20029;-60
2023/03/13 14:30:47;;;;;;;5.28;1.70;;;;;;;;;;5033396;28;20021;-59
2023/03/13 14:33:13;;;;;;;6.55;1.65;;;;;;;;;;5033131;28;20375;-57
2023/03/13 14:35:39;;;;;;;5.68;1.80;;;;;;;;;;5033653;28;20469;-56
2023/03/13 14:38:05;;;;;;;5.90;1.50;;;;;;;;;;5032306;28;20085;-59
2023/03/13 14:40:35;;;;;;;7.60;1.75;;;;;;;;;;5031587;28;20033;-59
2023/03/13 14:43:02;;;;;;;5.25;1.40;;;;;;;;;;5033024;28;20045;-60
2023/03/13 14:45:30;;;;;;;4.32;1.30;;;;;;;;;;5032859;28;20029;-60
2023/03/13 14:48:00;;;;;;;4.22;1.45;;;;;;;;;;5033032;28;20401;-61
2023/03/13 14:50:26;;;;;;;3.65;1.50;;;;;;;;;;5032515;28;20026;-59
2023/03/13 14:52:59;;;;;;;4.57;1.45;;;;;;;;;;5032895;28;20119;-62